createdAt,value
2023-03-17T00:00:16.205Z,16.41
2023-03-17T00:01:18.771Z,16.95
2023-03-17T00:02:21.366Z,17.65
2023-03-17T00:03:24.225Z,16.89
2023-03-17T00:04:26.872Z,17.54
2023-03-17T00:05:29.469Z,17.32
2023-03-17T00:06:32.128Z,16.94
2023-03-17T00:07:34.681Z,19.33
2023-03-17T00:08:37.546Z,18.32
2023-03-17T00:09:40.099Z,18.45
2023-03-17T00:10:42.862Z,16.82
2023-03-17T00:11:45.631Z,16.99
2023-03-17T00:12:48.175Z,18.54
2023-03-17T00:13:50.770Z,16.90
2023-03-17T00:14:53.339Z,16.97
2023-03-17T00:15:56.015Z,18.47
2023-03-17T00:16:58.809Z,17.42
2023-03-17T00:18:01.308Z,18.02
2023-03-17T00:19:03.871Z,18.45
2023-03-17T00:20:06.560Z,18.66
2023-03-17T00:21:09.165Z,15.87
2023-03-17T00:22:11.720Z,18.55
2023-03-17T00:23:14.273Z,19.15
2023-03-17T00:24:16.747Z,18.09
2023-03-17T00:25:19.484Z,19.32
2023-03-17T00:26:22.331Z,16.59
2023-03-17T00:27:24.897Z,16.73
2023-03-17T00:28:27.448Z,16.23
2023-03-17T00:29:29.912Z,17.06
2023-03-17T00:30:32.985Z,18.32
2023-03-17T00:31:35.796Z,18.34
2023-03-17T00:32:38.622Z,16.56
2023-03-17T00:33:41.247Z,17.54
2023-03-17T00:34:43.805Z,16.80
2023-03-17T00:35:46.480Z,17.43
2023-03-17T00:36:49.538Z,18.27
2023-03-17T00:37:52.144Z,17.69
2023-03-17T00:38:54.706Z,16.94
2023-03-17T00:39:57.270Z,18.09
2023-03-17T00:40:59.925Z,17.24
2023-03-17T00:42:02.487Z,18.33
2023-03-17T00:43:05.403Z,17.16
2023-03-17T00:44:07.988Z,16.24
2023-03-17T00:45:10.565Z,17.19
2023-03-17T00:46:13.660Z,15.75
2023-03-17T00:47:16.240Z,18.00
2023-03-17T00:48:18.806Z,17.38
2023-03-17T00:49:21.505Z,17.47
2023-03-17T00:50:24.584Z,16.43
2023-03-17T00:51:27.151Z,18.63
2023-03-17T00:52:29.725Z,17.86
2023-03-17T00:53:32.200Z,19.20
2023-03-17T00:54:34.798Z,15.99
2023-03-17T00:55:37.468Z,18.68
2023-03-17T00:56:40.257Z,18.22
2023-03-17T00:57:42.856Z,17.94
2023-03-17T00:58:45.355Z,16.72
2023-03-17T00:59:47.926Z,16.41
2023-03-17T01:00:50.681Z,18.04
2023-03-17T01:01:53.232Z,17.82
2023-03-17T01:02:55.808Z,17.51
2023-03-17T01:03:58.377Z,16.61
2023-03-17T01:05:06.413Z,17.27
2023-03-17T01:06:05.539Z,18.32
2023-03-17T01:07:08.099Z,17.43
2023-03-17T01:08:10.673Z,17.74
2023-03-17T01:09:13.255Z,17.25
2023-03-17T01:10:15.877Z,17.19
2023-03-17T01:11:18.438Z,19.31
2023-03-17T01:12:21.006Z,17.23
2023-03-17T01:13:23.551Z,18.85
2023-03-17T01:14:26.118Z,19.33
2023-03-17T01:15:28.669Z,18.99
2023-03-17T01:16:31.653Z,18.50
2023-03-17T01:17:34.199Z,20.25
2023-03-17T01:18:36.678Z,17.28
2023-03-17T01:19:39.334Z,17.77
2023-03-17T01:20:42.028Z,20.29
2023-03-17T01:21:44.640Z,19.85
2023-03-17T01:22:47.198Z,19.05
2023-03-17T01:23:49.882Z,22.64
2023-03-17T01:24:52.503Z,18.41
2023-03-17T01:25:55.061Z,20.35
2023-03-17T01:26:58.019Z,17.51
2023-03-17T01:28:00.518Z,19.33
2023-03-17T01:29:03.068Z,20.41
2023-03-17T01:30:06.029Z,18.27
2023-03-17T01:31:08.712Z,21.49
2023-03-17T01:32:11.271Z,19.33
2023-03-17T01:33:13.845Z,18.87
2023-03-17T01:34:16.457Z,19.41
2023-03-17T01:35:19.130Z,20.03
2023-03-17T01:36:21.722Z,18.94
2023-03-17T01:37:24.355Z,19.11
2023-03-17T01:38:26.931Z,18.77
2023-03-17T01:39:29.497Z,19.34
2023-03-17T01:40:32.943Z,19.43
2023-03-17T01:41:35.992Z,20.75
2023-03-17T01:42:38.584Z,19.53
2023-03-17T01:43:41.165Z,19.43
2023-03-17T01:44:43.724Z,18.42
2023-03-17T01:45:46.219Z,19.55
2023-03-17T01:46:48.972Z,19.79
2023-03-17T01:47:51.550Z,20.49
2023-03-17T01:48:54.134Z,18.77
2023-03-17T01:49:56.702Z,19.62
2023-03-17T01:50:59.386Z,19.48
2023-03-17T01:52:02.009Z,18.12
2023-03-17T01:53:04.475Z,20.03
2023-03-17T01:54:07.054Z,18.57
2023-03-17T01:55:09.624Z,20.24
2023-03-17T01:56:12.470Z,19.00
2023-03-17T01:57:15.044Z,18.87
2023-03-17T01:58:17.612Z,19.16
2023-03-17T01:59:20.189Z,18.88
2023-03-17T02:00:22.757Z,18.78
2023-03-17T02:01:25.430Z,21.24
2023-03-17T02:02:27.983Z,18.63
2023-03-17T02:03:30.551Z,20.09
2023-03-17T02:04:33.186Z,18.31
2023-03-17T02:05:35.820Z,17.98
2023-03-17T02:06:55.065Z,20.67
2023-03-17T02:07:43.307Z,21.64
2023-03-17T02:08:45.891Z,19.85
2023-03-17T02:09:48.454Z,20.95
2023-03-17T02:10:51.383Z,18.60
2023-03-17T02:11:53.950Z,20.35
2023-03-17T02:12:56.348Z,19.45
2023-03-17T02:13:58.916Z,19.31
2023-03-17T02:15:01.489Z,18.27
2023-03-17T02:16:04.073Z,19.13
2023-03-17T02:17:06.628Z,19.73
2023-03-17T02:18:09.202Z,17.28
2023-03-17T02:19:11.748Z,19.07
2023-03-17T02:20:14.751Z,18.27
2023-03-17T02:21:17.340Z,18.28
2023-03-17T02:22:19.923Z,18.75
2023-03-17T02:23:22.441Z,22.83
2023-03-17T02:24:25.107Z,20.09
2023-03-17T02:25:27.668Z,18.53
2023-03-17T02:26:30.477Z,18.80
2023-03-17T02:27:33.164Z,20.57
2023-03-17T02:28:35.757Z,20.11
2023-03-17T02:29:38.373Z,20.75
2023-03-17T02:30:41.255Z,20.56
2023-03-17T02:31:44.157Z,19.87
2023-03-17T02:32:46.778Z,23.01
2023-03-17T02:33:49.358Z,20.08
2023-03-17T02:34:51.924Z,20.16
2023-03-17T02:35:54.480Z,19.27
2023-03-17T02:36:57.192Z,20.51
2023-03-17T02:37:59.780Z,21.11
2023-03-17T02:39:02.482Z,18.89
2023-03-17T02:40:05.147Z,18.41
2023-03-17T02:41:07.705Z,19.84
2023-03-17T02:42:10.262Z,19.59
2023-03-17T02:43:12.812Z,21.19
2023-03-17T02:44:15.305Z,18.67
2023-03-17T02:45:17.867Z,19.92
2023-03-17T02:46:20.574Z,18.86
2023-03-17T02:47:23.321Z,18.57
2023-03-17T02:48:25.881Z,18.42
2023-03-17T02:49:28.488Z,19.69
2023-03-17T02:50:31.684Z,19.35
2023-03-17T02:51:34.582Z,19.25
2023-03-17T02:52:37.374Z,19.24
2023-03-17T02:53:39.936Z,23.96
2023-03-17T02:54:42.530Z,20.32
2023-03-17T02:55:45.112Z,19.81
2023-03-17T02:56:47.864Z,20.08
2023-03-17T02:57:50.408Z,19.54
2023-03-17T02:58:52.985Z,19.60
2023-03-17T02:59:55.573Z,18.48
2023-03-17T03:00:58.227Z,19.91
2023-03-17T03:02:00.803Z,18.93
2023-03-17T03:03:03.357Z,21.33
2023-03-17T03:04:05.926Z,19.40
2023-03-17T03:05:08.507Z,19.53
2023-03-17T03:06:11.255Z,16.39
2023-03-17T03:07:13.826Z,20.51
2023-03-17T03:08:16.385Z,20.03
2023-03-17T03:09:18.952Z,17.45
2023-03-17T03:10:21.637Z,19.45
2023-03-17T03:11:24.182Z,18.43
2023-03-17T03:12:26.740Z,18.36
2023-03-17T03:13:29.310Z,20.38
2023-03-17T03:14:31.889Z,18.52
2023-03-17T03:15:34.528Z,17.34
2023-03-17T03:16:37.339Z,20.00
2023-03-17T03:17:39.833Z,22.53
2023-03-17T03:18:42.404Z,17.93
2023-03-17T03:19:44.885Z,17.00
2023-03-17T03:20:47.749Z,18.69
2023-03-17T03:21:50.322Z,19.79
2023-03-17T03:22:53.289Z,18.52
2023-03-17T03:23:55.952Z,18.09
2023-03-17T03:24:58.527Z,18.06
2023-03-17T03:26:01.002Z,17.91
2023-03-17T03:27:03.357Z,18.77
2023-03-17T03:28:05.963Z,19.23
2023-03-17T03:29:08.510Z,21.27
2023-03-17T03:30:11.988Z,18.59
2023-03-17T03:31:14.609Z,19.15
2023-03-17T03:32:17.152Z,17.68
2023-03-17T03:33:19.726Z,17.28
2023-03-17T03:34:22.273Z,19.63
2023-03-17T03:35:24.818Z,17.43
2023-03-17T03:36:27.784Z,18.98
2023-03-17T03:37:30.354Z,19.82
2023-03-17T03:38:32.933Z,17.86
2023-03-17T03:39:35.492Z,19.73
2023-03-17T03:40:38.481Z,23.14
2023-03-17T03:41:40.991Z,17.79
2023-03-17T03:42:43.545Z,18.95
2023-03-17T03:43:46.119Z,18.09
2023-03-17T03:44:48.508Z,18.49
2023-03-17T03:45:50.940Z,17.51
2023-03-17T03:46:53.563Z,21.67
2023-03-17T03:47:56.103Z,22.65
2023-03-17T03:48:58.660Z,23.19
2023-03-17T03:50:01.261Z,20.21
2023-03-17T03:51:03.782Z,20.74
2023-03-17T03:52:06.423Z,20.95
2023-03-17T03:53:09.025Z,20.86
2023-03-17T03:54:11.488Z,20.27
2023-03-17T03:55:14.053Z,19.39
2023-03-17T03:56:16.908Z,19.77
2023-03-17T03:57:19.496Z,20.56
2023-03-17T03:58:22.111Z,20.26
2023-03-17T03:59:24.714Z,20.13
2023-03-17T04:00:27.629Z,18.55
2023-03-17T04:01:30.233Z,19.85
2023-03-17T04:02:32.849Z,21.55
2023-03-17T04:03:35.383Z,18.48
2023-03-17T04:04:38.113Z,18.03
2023-03-17T04:05:40.657Z,17.50
2023-03-17T04:06:43.309Z,19.13
2023-03-17T04:07:45.926Z,20.49
2023-03-17T04:08:48.547Z,17.54
2023-03-17T04:09:51.108Z,19.51
2023-03-17T04:10:53.989Z,26.11
2023-03-17T04:11:56.591Z,18.57
2023-03-17T04:12:59.169Z,20.55
2023-03-17T04:14:01.617Z,17.49
2023-03-17T04:15:04.391Z,17.91
2023-03-17T04:16:07.745Z,19.28
2023-03-17T04:17:10.266Z,20.47
2023-03-17T04:18:12.847Z,19.17
2023-03-17T04:19:15.478Z,20.17
2023-03-17T04:20:18.279Z,17.92
2023-03-17T04:21:20.891Z,18.76
2023-03-17T04:22:23.447Z,17.42
2023-03-17T04:23:26.010Z,20.57
2023-03-17T04:24:28.568Z,20.05
2023-03-17T04:25:31.150Z,21.21
2023-03-17T04:26:34.060Z,20.23
2023-03-17T04:27:36.619Z,20.93
2023-03-17T04:28:39.193Z,19.11
2023-03-17T04:29:41.802Z,18.46
2023-03-17T04:30:44.667Z,20.17
2023-03-17T04:31:47.269Z,21.61
2023-03-17T04:32:49.831Z,21.68
2023-03-17T04:33:52.395Z,21.43
2023-03-17T04:34:54.939Z,22.52
2023-03-17T04:35:57.510Z,21.57
2023-03-17T04:37:00.713Z,19.88
2023-03-17T04:38:03.293Z,19.70
2023-03-17T04:39:05.899Z,21.65
2023-03-17T04:40:08.990Z,20.48
2023-03-17T04:41:11.548Z,23.09
2023-03-17T04:42:14.177Z,20.50
2023-03-17T04:43:16.780Z,19.19
2023-03-17T04:44:19.319Z,20.25
2023-03-17T04:45:21.864Z,21.17
2023-03-17T04:46:24.422Z,19.63
2023-03-17T04:47:27.026Z,19.79
2023-03-17T04:48:29.516Z,20.55
2023-03-17T04:49:32.094Z,20.73
2023-03-17T04:50:34.776Z,21.22
2023-03-17T04:51:37.336Z,18.83
2023-03-17T04:52:39.925Z,20.45
2023-03-17T04:53:42.537Z,21.17
2023-03-17T04:54:45.134Z,20.64
2023-03-17T04:55:47.795Z,23.33
2023-03-17T04:56:50.530Z,21.32
2023-03-17T04:57:53.176Z,19.91
2023-03-17T04:58:55.751Z,19.16
2023-03-17T04:59:58.303Z,18.33
2023-03-17T05:01:01.219Z,20.70
2023-03-17T05:02:03.850Z,20.32
2023-03-17T05:03:20.036Z,20.39
2023-03-17T05:04:12.770Z,21.58
2023-03-17T05:05:15.310Z,17.81
2023-03-17T05:06:17.852Z,18.83
2023-03-17T05:07:20.379Z,20.57
2023-03-17T05:08:22.951Z,18.96
2023-03-17T05:09:25.545Z,18.68
2023-03-17T05:10:28.312Z,20.48
2023-03-17T05:11:30.871Z,20.47
2023-03-17T05:12:33.553Z,19.37
2023-03-17T05:13:36.315Z,19.73
2023-03-17T05:14:38.873Z,21.61
2023-03-17T05:15:41.436Z,20.03
2023-03-17T05:16:44.334Z,19.09
2023-03-17T05:17:47.074Z,22.00
2023-03-17T05:18:49.705Z,19.82
2023-03-17T05:19:52.167Z,18.79
2023-03-17T05:20:54.727Z,18.85
2023-03-17T05:21:57.293Z,18.47
2023-03-17T05:22:59.836Z,19.73
2023-03-17T05:24:02.434Z,19.97
2023-03-17T05:25:04.895Z,18.87
2023-03-17T05:26:08.280Z,18.64
2023-03-17T05:27:10.855Z,20.51
2023-03-17T05:28:13.441Z,20.61
2023-03-17T05:29:15.997Z,18.20
2023-03-17T05:30:18.701Z,19.92
2023-03-17T05:31:21.537Z,18.09
2023-03-17T05:32:24.260Z,17.69
2023-03-17T05:33:26.814Z,19.77
2023-03-17T05:34:29.409Z,18.76
2023-03-17T05:35:31.974Z,19.81
2023-03-17T05:36:34.721Z,17.91
2023-03-17T05:37:37.559Z,19.14
2023-03-17T05:38:40.131Z,18.59
2023-03-17T05:39:42.714Z,17.33
2023-03-17T05:40:45.402Z,21.33
2023-03-17T05:41:47.997Z,19.87
2023-03-17T05:42:50.560Z,18.49
2023-03-17T05:43:53.124Z,17.59
2023-03-17T05:44:55.543Z,17.95
2023-03-17T05:45:58.271Z,18.69
2023-03-17T05:47:01.074Z,21.99
2023-03-17T05:48:03.625Z,17.74
2023-03-17T05:49:06.103Z,18.52
2023-03-17T05:50:09.104Z,19.21
2023-03-17T05:51:11.650Z,20.81
2023-03-17T05:52:14.245Z,16.75
2023-03-17T05:53:16.756Z,17.81
2023-03-17T05:54:19.409Z,19.10
2023-03-17T05:55:21.883Z,18.15
2023-03-17T05:56:24.748Z,18.90
2023-03-17T05:57:27.329Z,20.63
2023-03-17T05:58:29.889Z,17.14
2023-03-17T05:59:32.470Z,21.12
2023-03-17T06:00:35.136Z,20.07
2023-03-17T06:01:37.732Z,18.98
2023-03-17T06:02:40.377Z,17.25
2023-03-17T06:03:43.209Z,19.37
2023-03-17T06:04:45.860Z,21.19
2023-03-17T06:05:48.618Z,18.22
2023-03-17T06:06:51.486Z,18.57
2023-03-17T06:07:56.470Z,16.73
2023-03-17T06:08:58.468Z,20.29
2023-03-17T06:10:01.065Z,18.88
2023-03-17T06:11:03.737Z,18.42
2023-03-17T06:12:06.280Z,18.87
2023-03-17T06:13:08.882Z,20.26
2023-03-17T06:14:11.503Z,18.39
2023-03-17T06:15:14.017Z,20.65
2023-03-17T06:16:16.881Z,19.28
2023-03-17T06:17:19.761Z,18.73
2023-03-17T06:18:22.428Z,19.29
2023-03-17T06:19:25.010Z,21.17
2023-03-17T06:20:27.559Z,18.83
2023-03-17T06:21:30.170Z,23.49
2023-03-17T06:22:32.801Z,21.67
2023-03-17T06:23:35.351Z,20.71
2023-03-17T06:24:37.912Z,20.37
2023-03-17T06:25:40.473Z,18.86
2023-03-17T06:26:43.338Z,17.89
2023-03-17T06:27:46.358Z,22.62
2023-03-17T06:28:48.917Z,19.61
2023-03-17T06:29:51.488Z,18.19
2023-03-17T06:30:54.150Z,16.07
2023-03-17T06:31:58.171Z,19.43
2023-03-17T06:33:01.275Z,16.98
2023-03-17T06:34:03.965Z,19.51
2023-03-17T06:35:06.509Z,18.91
2023-03-17T06:36:09.350Z,20.04
2023-03-17T06:37:11.968Z,19.67
2023-03-17T06:38:14.537Z,17.45
2023-03-17T06:39:17.503Z,16.19
2023-03-17T06:40:20.497Z,16.14
2023-03-17T06:41:23.304Z,17.29
2023-03-17T06:42:25.898Z,17.34
2023-03-17T06:43:28.446Z,17.24
2023-03-17T06:44:31.041Z,16.38
2023-03-17T06:45:33.856Z,17.03
2023-03-17T06:46:37.009Z,15.81
2023-03-17T06:47:39.636Z,16.80
2023-03-17T06:48:42.562Z,17.27
2023-03-17T06:49:45.144Z,14.31
2023-03-17T06:50:47.888Z,14.89
2023-03-17T06:51:50.440Z,16.89
2023-03-17T06:52:52.996Z,15.37
2023-03-17T06:53:55.500Z,16.01
2023-03-17T06:54:58.059Z,15.63
2023-03-17T06:56:00.637Z,16.51
2023-03-17T06:57:03.352Z,15.55
2023-03-17T06:58:05.930Z,14.69
2023-03-17T06:59:08.547Z,15.79
2023-03-17T07:00:11.313Z,14.93
2023-03-17T07:01:13.869Z,13.19
2023-03-17T07:02:16.453Z,15.06
2023-03-17T07:03:19.004Z,14.13
2023-03-17T07:04:21.654Z,15.58
2023-03-17T07:05:24.350Z,17.52
2023-03-17T07:06:27.023Z,13.73
2023-03-17T07:07:29.581Z,16.15
2023-03-17T07:08:32.147Z,15.53
2023-03-17T07:09:34.821Z,13.77
2023-03-17T07:10:37.709Z,15.38
2023-03-17T07:11:40.268Z,14.99
2023-03-17T07:12:42.831Z,15.67
2023-03-17T07:13:45.401Z,15.14
2023-03-17T07:14:48.010Z,14.11
2023-03-17T07:15:50.611Z,16.67
2023-03-17T07:16:53.387Z,15.78
2023-03-17T07:17:55.947Z,15.65
2023-03-17T07:18:58.513Z,12.56
2023-03-17T07:20:01.362Z,12.87
2023-03-17T07:21:03.946Z,14.68
2023-03-17T07:22:06.512Z,14.38
2023-03-17T07:23:09.070Z,15.20
2023-03-17T07:24:11.646Z,15.87
2023-03-17T07:25:14.224Z,14.75
2023-03-17T07:26:17.103Z,14.69
2023-03-17T07:27:22.693Z,15.33
2023-03-17T07:28:24.092Z,14.19
2023-03-17T07:29:26.660Z,17.01
2023-03-17T07:30:29.283Z,14.29
2023-03-17T07:31:31.859Z,13.50
2023-03-17T07:32:35.051Z,16.34
2023-03-17T07:33:37.591Z,14.19
2023-03-17T07:34:40.161Z,13.48
2023-03-17T07:35:42.891Z,14.54
2023-03-17T07:36:45.610Z,14.44
2023-03-17T07:37:48.169Z,15.43
2023-03-17T07:38:50.733Z,14.83
2023-03-17T07:39:53.289Z,16.10
2023-03-17T07:40:55.996Z,16.05
2023-03-17T07:41:58.579Z,15.24
2023-03-17T07:43:01.110Z,14.71
2023-03-17T07:44:03.676Z,16.89
2023-03-17T07:45:06.235Z,15.94
2023-03-17T07:46:09.075Z,15.18
2023-03-17T07:47:11.674Z,16.71
2023-03-17T07:48:14.436Z,12.41
2023-03-17T07:49:18.178Z,15.66
2023-03-17T07:50:21.578Z,17.54
2023-03-17T07:51:24.142Z,15.85
2023-03-17T07:52:26.751Z,15.87
2023-03-17T07:53:29.248Z,16.41
2023-03-17T07:54:31.754Z,15.23
2023-03-17T07:55:34.622Z,16.26
2023-03-17T07:56:37.629Z,16.50
2023-03-17T07:57:40.219Z,13.99
2023-03-17T07:58:42.889Z,15.59
2023-03-17T07:59:45.441Z,15.95
2023-03-17T08:00:48.073Z,17.69
2023-03-17T08:01:50.763Z,13.93
2023-03-17T08:03:06.880Z,17.01
2023-03-17T08:03:58.090Z,13.55
2023-03-17T08:05:00.724Z,14.24
2023-03-17T08:06:03.256Z,14.55
2023-03-17T08:07:05.884Z,13.67
2023-03-17T08:08:08.460Z,13.94
2023-03-17T08:09:11.050Z,15.66
2023-03-17T08:10:14.201Z,14.32
2023-03-17T08:11:16.776Z,12.81
2023-03-17T08:12:19.375Z,14.02
2023-03-17T08:13:21.897Z,13.96
2023-03-17T08:14:24.377Z,12.22
2023-03-17T08:15:26.923Z,12.57
2023-03-17T08:16:29.523Z,13.41
2023-03-17T08:17:32.293Z,13.37
2023-03-17T08:18:34.881Z,11.79
2023-03-17T08:19:37.560Z,12.57
2023-03-17T08:20:40.350Z,13.20
2023-03-17T08:21:42.838Z,12.75
2023-03-17T08:22:45.455Z,11.80
2023-03-17T08:23:48.396Z,11.67
2023-03-17T08:24:50.960Z,11.79
2023-03-17T08:25:53.506Z,11.70
2023-03-17T08:26:56.171Z,10.93
2023-03-17T08:27:58.722Z,11.19
2023-03-17T08:29:01.323Z,11.95
2023-03-17T08:30:04.307Z,12.63
2023-03-17T08:31:06.950Z,11.62
2023-03-17T08:32:09.607Z,11.91
2023-03-17T08:33:12.265Z,12.32
2023-03-17T08:34:14.917Z,10.64
2023-03-17T08:35:17.602Z,11.33
2023-03-17T08:36:20.251Z,11.41
2023-03-17T08:37:22.802Z,9.84
2023-03-17T08:38:25.576Z,10.21
2023-03-17T08:39:28.188Z,12.08
2023-03-17T08:40:31.474Z,11.72
2023-03-17T08:41:34.623Z,11.96
2023-03-17T08:42:37.235Z,10.04
2023-03-17T08:43:39.869Z,10.89
2023-03-17T08:44:44.090Z,10.07
2023-03-17T08:45:46.836Z,11.23
2023-03-17T08:46:49.694Z,14.43
2023-03-17T08:47:52.267Z,12.15
2023-03-17T08:48:54.855Z,13.69
2023-03-17T08:49:57.413Z,11.82
2023-03-17T08:51:00.401Z,11.94
2023-03-17T08:52:02.996Z,12.57
2023-03-17T08:53:05.581Z,12.37
2023-03-17T08:54:08.788Z,12.42
2023-03-17T08:55:11.390Z,10.33
2023-03-17T08:56:14.079Z,11.43
2023-03-17T08:57:16.608Z,11.66
2023-03-17T08:58:19.239Z,11.96
2023-03-17T08:59:21.898Z,11.79
2023-03-17T09:00:24.616Z,13.65
2023-03-17T09:01:27.305Z,12.20
2023-03-17T09:02:30.108Z,11.96
2023-03-17T09:03:32.618Z,12.23
2023-03-17T09:04:35.330Z,12.35
2023-03-17T09:05:38.678Z,11.75
2023-03-17T09:06:51.872Z,11.83
2023-03-17T09:07:46.283Z,12.66
2023-03-17T09:08:48.885Z,13.61
2023-03-17T09:09:51.500Z,10.17
2023-03-17T09:10:54.171Z,12.58
2023-03-17T09:11:56.728Z,11.65
2023-03-17T09:12:59.283Z,12.71
2023-03-17T09:14:01.858Z,14.31
2023-03-17T09:15:04.452Z,13.17
2023-03-17T09:16:07.281Z,11.16
2023-03-17T09:17:09.905Z,12.61
2023-03-17T09:18:12.468Z,12.41
2023-03-17T09:19:15.213Z,11.81
2023-03-17T09:20:18.192Z,11.73
2023-03-17T09:21:20.748Z,11.18
2023-03-17T09:22:23.316Z,10.63
2023-03-17T09:23:25.895Z,13.97
2023-03-17T09:24:28.447Z,11.78
2023-03-17T09:25:31.270Z,12.87
2023-03-17T09:26:33.935Z,12.93
2023-03-17T09:27:36.493Z,12.78
2023-03-17T09:28:38.949Z,13.66
2023-03-17T09:29:41.507Z,14.14
2023-03-17T09:30:44.325Z,12.35
2023-03-17T09:31:46.895Z,11.85
2023-03-17T09:32:49.484Z,12.06
2023-03-17T09:33:52.341Z,11.36
2023-03-17T09:34:54.901Z,11.21
2023-03-17T09:35:57.510Z,12.07
2023-03-17T09:37:00.526Z,12.82
2023-03-17T09:38:03.112Z,12.71
2023-03-17T09:39:05.667Z,11.31
2023-03-17T09:40:09.236Z,14.63
2023-03-17T09:41:11.812Z,12.75
2023-03-17T09:42:14.487Z,12.26
2023-03-17T09:43:17.066Z,14.31
2023-03-17T09:44:19.671Z,12.54
2023-03-17T09:45:22.134Z,12.25
2023-03-17T09:46:25.059Z,14.36
2023-03-17T09:47:27.963Z,13.29
2023-03-17T09:48:30.542Z,14.47
2023-03-17T09:49:33.114Z,13.97
2023-03-17T09:50:35.926Z,13.58
2023-03-17T09:51:38.611Z,14.51
2023-03-17T09:52:41.177Z,13.15
2023-03-17T09:53:43.730Z,16.79
2023-03-17T09:54:46.287Z,13.00
2023-03-17T09:55:48.851Z,14.17
2023-03-17T09:56:52.249Z,13.59
2023-03-17T09:57:54.814Z,13.05
2023-03-17T09:58:57.476Z,13.53
2023-03-17T10:00:00.043Z,13.71
2023-03-17T10:01:02.593Z,14.79
2023-03-17T10:02:05.203Z,13.79
2023-03-17T10:03:07.923Z,12.75
2023-03-17T10:04:10.601Z,12.96
2023-03-17T10:05:13.220Z,12.92
2023-03-17T10:06:15.935Z,16.54
2023-03-17T10:07:18.506Z,14.65
2023-03-17T10:08:30.756Z,14.89
2023-03-17T10:09:27.058Z,12.66
2023-03-17T10:10:30.752Z,14.89
2023-03-17T10:11:33.637Z,12.88
2023-03-17T10:12:36.227Z,15.77
2023-03-17T10:13:38.783Z,14.09
2023-03-17T10:14:41.343Z,15.17
2023-03-17T10:15:43.919Z,15.17
2023-03-17T10:16:46.623Z,14.73
2023-03-17T10:17:49.204Z,13.71
2023-03-17T10:18:51.762Z,13.07
2023-03-17T10:19:54.385Z,12.99
2023-03-17T10:20:56.990Z,15.93
2023-03-17T10:21:59.552Z,13.13
2023-03-17T10:23:02.109Z,15.07
2023-03-17T10:24:04.692Z,14.94
2023-03-17T10:25:07.362Z,14.56
2023-03-17T10:26:10.948Z,14.05
2023-03-17T10:27:13.514Z,15.81
2023-03-17T10:28:16.093Z,14.13
2023-03-17T10:29:18.654Z,12.97
2023-03-17T10:30:21.371Z,13.70
2023-03-17T10:31:23.936Z,12.97
2023-03-17T10:32:26.493Z,16.52
2023-03-17T10:33:29.111Z,12.83
2023-03-17T10:34:31.671Z,13.55
2023-03-17T10:35:34.241Z,13.36
2023-03-17T10:36:36.989Z,13.61
2023-03-17T10:37:40.281Z,14.01
2023-03-17T10:38:43.964Z,14.43
2023-03-17T10:39:46.559Z,10.48
2023-03-17T10:40:49.228Z,16.09
2023-03-17T10:41:51.796Z,14.27
2023-03-17T10:42:54.363Z,17.21
2023-03-17T10:43:56.968Z,15.40
2023-03-17T10:44:59.540Z,15.66
2023-03-17T10:46:02.161Z,15.05
2023-03-17T10:47:04.834Z,13.83
2023-03-17T10:48:07.598Z,13.34
2023-03-17T10:49:10.218Z,12.61
2023-03-17T10:50:13.589Z,13.31
2023-03-17T10:51:16.190Z,16.41
2023-03-17T10:52:18.719Z,14.01
2023-03-17T10:53:21.286Z,12.35
2023-03-17T10:54:23.885Z,14.39
2023-03-17T10:55:26.480Z,17.31
2023-03-17T10:56:29.236Z,15.38
2023-03-17T10:57:31.818Z,16.25
2023-03-17T10:58:34.407Z,14.89
2023-03-17T10:59:37.012Z,13.41
2023-03-17T11:00:39.710Z,14.11
2023-03-17T11:01:42.300Z,14.01
2023-03-17T11:02:44.868Z,15.71
2023-03-17T11:03:47.544Z,14.63
2023-03-17T11:04:50.346Z,16.69
2023-03-17T11:05:52.937Z,15.99
2023-03-17T11:06:55.714Z,13.32
2023-03-17T11:07:58.271Z,13.43
2023-03-17T11:09:00.821Z,14.93
2023-03-17T11:10:03.390Z,15.28
2023-03-17T11:11:05.952Z,14.59
2023-03-17T11:12:08.722Z,17.25
2023-03-17T11:13:11.341Z,15.43
2023-03-17T11:14:14.265Z,15.15
2023-03-17T11:15:16.907Z,14.97
2023-03-17T11:16:19.691Z,15.40
2023-03-17T11:17:22.317Z,16.23
2023-03-17T11:18:25.033Z,13.61
2023-03-17T11:19:27.639Z,14.21
2023-03-17T11:20:30.592Z,14.11
2023-03-17T11:21:33.361Z,12.47
2023-03-17T11:22:35.934Z,17.69
2023-03-17T11:23:38.525Z,14.47
2023-03-17T11:24:41.084Z,12.30
2023-03-17T11:25:43.670Z,13.78
2023-03-17T11:26:46.341Z,14.87
2023-03-17T11:27:48.898Z,13.55
2023-03-17T11:28:51.504Z,12.53
2023-03-17T11:29:54.074Z,14.80
2023-03-17T11:30:57.075Z,13.67
2023-03-17T11:31:59.709Z,17.44
2023-03-17T11:33:02.423Z,15.89
2023-03-17T11:34:04.960Z,12.88
2023-03-17T11:35:07.510Z,15.53
2023-03-17T11:36:10.736Z,15.60
2023-03-17T11:37:13.351Z,15.23
2023-03-17T11:38:15.952Z,14.75
2023-03-17T11:39:18.510Z,15.10
2023-03-17T11:40:21.392Z,14.94
2023-03-17T11:41:23.980Z,14.41
2023-03-17T11:42:26.603Z,14.54
2023-03-17T11:43:29.196Z,15.43
2023-03-17T11:44:31.691Z,15.57
2023-03-17T11:45:34.303Z,14.85
2023-03-17T11:46:37.430Z,15.88
2023-03-17T11:47:40.032Z,16.00
2023-03-17T11:48:42.571Z,16.83
2023-03-17T11:49:45.134Z,15.13
2023-03-17T11:50:47.837Z,16.78
2023-03-17T11:51:50.754Z,15.41
2023-03-17T11:52:53.364Z,13.46
2023-03-17T11:53:55.918Z,14.36
2023-03-17T11:54:59.699Z,14.85
2023-03-17T11:56:02.966Z,15.38
2023-03-17T11:57:05.622Z,15.27
2023-03-17T11:58:08.284Z,13.33
2023-03-17T11:59:10.877Z,18.73
2023-03-17T12:00:13.644Z,13.95
2023-03-17T12:01:16.255Z,17.00
2023-03-17T12:02:18.810Z,16.27
2023-03-17T12:03:21.773Z,15.10
2023-03-17T12:04:24.713Z,15.14
2023-03-17T12:05:27.271Z,15.27
2023-03-17T12:06:29.938Z,16.13
2023-03-17T12:07:32.818Z,15.40
2023-03-17T12:08:35.428Z,14.85
2023-03-17T12:09:38.171Z,17.91
2023-03-17T12:10:40.754Z,16.11
2023-03-17T12:11:43.328Z,14.37
2023-03-17T12:12:45.792Z,15.53
2023-03-17T12:13:48.357Z,16.65
2023-03-17T12:14:50.919Z,15.73
2023-03-17T12:15:53.529Z,15.02
2023-03-17T12:16:56.392Z,16.77
2023-03-17T12:17:58.988Z,16.42
2023-03-17T12:19:01.552Z,19.37
2023-03-17T12:20:04.341Z,17.47
2023-03-17T12:21:07.023Z,16.31
2023-03-17T12:22:09.652Z,16.80
2023-03-17T12:23:12.217Z,15.62
2023-03-17T12:24:14.798Z,17.88
2023-03-17T12:25:17.513Z,15.22
2023-03-17T12:26:20.236Z,17.78
2023-03-17T12:27:22.827Z,16.23
2023-03-17T12:28:25.370Z,16.00
2023-03-17T12:29:28.060Z,14.95
2023-03-17T12:30:31.043Z,14.51
2023-03-17T12:31:33.860Z,16.76
2023-03-17T12:32:36.805Z,16.50
2023-03-17T12:33:39.415Z,16.10
2023-03-17T12:34:42.000Z,15.55
2023-03-17T12:35:44.614Z,15.85
2023-03-17T12:36:47.746Z,15.52
2023-03-17T12:37:50.308Z,16.31
2023-03-17T12:38:52.866Z,14.27
2023-03-17T12:39:55.481Z,13.70
2023-03-17T12:40:58.008Z,13.81
2023-03-17T12:42:00.615Z,14.29
2023-03-17T12:43:03.233Z,13.92
2023-03-17T12:44:05.795Z,14.09
2023-03-17T12:45:08.416Z,13.85
2023-03-17T12:46:11.327Z,13.85
2023-03-17T12:47:14.057Z,15.36
2023-03-17T12:48:16.614Z,15.75
2023-03-17T12:49:19.169Z,15.15
2023-03-17T12:50:21.726Z,13.59
2023-03-17T12:51:24.280Z,15.55
2023-03-17T12:52:26.873Z,14.23
2023-03-17T12:53:29.461Z,13.85
2023-03-17T12:54:32.040Z,16.17
2023-03-17T12:55:34.629Z,13.60
2023-03-17T12:56:37.428Z,13.71
2023-03-17T12:57:40.059Z,13.97
2023-03-17T12:58:42.568Z,13.47
2023-03-17T12:59:44.937Z,13.99
2023-03-17T13:00:47.809Z,13.53
2023-03-17T13:01:50.386Z,13.09
2023-03-17T13:02:53.002Z,14.51
2023-03-17T13:03:55.553Z,14.14
2023-03-17T13:04:58.175Z,12.25
2023-03-17T13:06:00.875Z,14.01
2023-03-17T13:07:03.434Z,12.52
2023-03-17T13:08:06.003Z,12.73
2023-03-17T13:09:08.593Z,12.84
2023-03-17T13:10:11.995Z,12.24
2023-03-17T13:11:14.855Z,15.24
2023-03-17T13:12:17.416Z,14.47
2023-03-17T13:13:20.120Z,13.23
2023-03-17T13:14:22.733Z,13.71
2023-03-17T13:15:25.204Z,13.59
2023-03-17T13:16:27.939Z,12.75
2023-03-17T13:17:30.623Z,12.77
2023-03-17T13:18:33.185Z,12.71
2023-03-17T13:19:35.752Z,13.43
2023-03-17T13:20:38.512Z,12.52
2023-03-17T13:21:40.971Z,12.75
2023-03-17T13:22:43.574Z,13.52
2023-03-17T13:23:46.130Z,12.13
2023-03-17T13:24:48.744Z,13.72
2023-03-17T13:25:51.268Z,14.20
2023-03-17T13:26:55.185Z,13.32